Time,TemperatureF,DewpointF,PressureIn,WindDirection,WindDirectionDegrees,WindSpeedMPH,WindSpeedGustMPH,Humidity,HourlyPrecipIn,Conditions,Clouds,dailyrainin,SolarRadiationWatts/m^2,SoftwareType,DateUTC
2013-10-21 00:04:00,39.0,37.0,-100.00,ENE,74,0.0,0.0,92,0.00,,,0.00,0.000000,,2013-10-21 04:04:00,
2013-10-21 00:14:00,39.0,37.0,-100.00,ENE,74,0.0,0.0,92,0.00,,,0.00,0.000000,,2013-10-21 04:14:00,
2013-10-21 00:44:00,39.0,37.0,-100.00,ESE,107,0.0,0.0,93,0.00,,,0.00,0.000000,,2013-10-21 04:44:00,
2013-10-21 00:54:00,39.0,37.0,-100.00,ESE,107,0.0,0.0,93,0.00,,,0.00,0.000000,,2013-10-21 04:54:00,
2013-10-21 01:04:00,39.0,37.0,-100.00,ESE,107,0.0,0.0,93,0.00,,,0.00,0.000000,,2013-10-21 05:04:00,
2013-10-21 01:13:00,39.0,37.0,-100.00,ESE,107,0.0,0.0,93,0.00,,,0.00,0.000000,,2013-10-21 05:13:00,
2013-10-21 01:43:00,37.0,36.0,-100.00,East,94,0.0,0.0,98,0.00,,,0.00,0.000000,,2013-10-21 05:43:00,
2013-10-21 01:52:00,37.0,36.0,-100.00,East,94,0.0,0.0,98,0.00,,,0.00,0.000000,,2013-10-21 05:52:00,
2013-10-21 02:02:00,37.0,36.0,-100.00,East,94,0.0,0.0,98,0.00,,,0.00,0.000000,,2013-10-21 06:02:00,
2013-10-21 02:12:00,37.0,36.0,-100.00,East,94,0.0,0.0,98,0.00,,,0.00,0.000000,,2013-10-21 06:12:00,
2013-10-21 02:42:00,36.0,36.0,-100.00,NE,52,0.0,0.0,99,0.00,,,0.00,0.000000,,2013-10-21 06:42:00,
2013-10-21 02:52:00,36.0,36.0,-100.00,NE,52,0.0,0.0,99,0.00,,,0.00,0.000000,,2013-10-21 06:52:00,
2013-10-21 03:02:00,36.0,36.0,-100.00,NE,52,0.0,0.0,99,0.00,,,0.00,0.000000,,2013-10-21 07:02:00,
2013-10-21 03:12:00,36.0,36.0,-100.00,NE,52,0.0,0.0,99,0.00,,,0.00,0.000000,,2013-10-21 07:12:00,
2013-10-21 03:43:00,36.0,36.0,-100.00,ENE,73,1.0,2.0,100,0.00,,,0.00,0.000000,,2013-10-21 07:43:00,
2013-10-21 03:52:00,36.0,36.0,-100.00,ENE,73,1.0,2.0,100,0.00,,,0.00,0.000000,,2013-10-21 07:52:00,
2013-10-21 04:03:00,36.0,36.0,-100.00,ENE,73,1.0,2.0,100,0.00,,,0.00,0.000000,,2013-10-21 08:03:00,
2013-10-21 04:12:00,36.0,36.0,-100.00,ENE,73,1.0,2.0,100,0.00,,,0.00,0.000000,,2013-10-21 08:12:00,
2013-10-21 04:42:00,35.0,35.0,-100.00,South,185,0.0,0.0,100,0.00,,,0.00,0.000000,,2013-10-21 08:42:00,
2013-10-21 04:52:00,35.0,35.0,-100.00,South,185,0.0,0.0,100,0.00,,,0.00,0.000000,,2013-10-21 08:52:00,
2013-10-21 05:02:00,35.0,35.0,-100.00,South,185,0.0,0.0,100,0.00,,,0.00,0.000000,,2013-10-21 09:02:00,
2013-10-21 05:11:00,35.0,35.0,-100.00,South,185,0.0,0.0,100,0.00,,,0.00,0.000000,,2013-10-21 09:11:00,
2013-10-21 05:43:00,34.0,34.0,-100.00,ENE,61,0.0,2.0,100,0.00,,,0.00,0.000000,,2013-10-21 09:43:00,
2013-10-21 05:54:00,34.0,34.0,-100.00,ENE,61,0.0,2.0,100,0.00,,,0.00,0.000000,,2013-10-21 09:54:00,
2013-10-21 06:03:00,34.0,34.0,-100.00,ENE,61,0.0,2.0,100,0.00,,,0.00,0.000000,,2013-10-21 10:03:00,
2013-10-21 06:13:00,34.0,34.0,-100.00,ENE,61,0.0,2.0,100,0.00,,,0.00,0.000000,,2013-10-21 10:13:00,
2013-10-21 06:43:00,33.0,33.0,-100.00,East,89,0.0,0.0,100,0.00,,,0.00,0.000000,,2013-10-21 10:43:00,
2013-10-21 06:53:00,33.0,33.0,-100.00,East,89,0.0,0.0,100,0.00,,,0.00,0.000000,,2013-10-21 10:53:00,
2013-10-21 07:03:00,33.0,33.0,-100.00,East,89,0.0,0.0,100,0.00,,,0.00,0.000000,,2013-10-21 11:03:00,
2013-10-21 07:12:00,33.0,33.0,-100.00,East,89,0.0,0.0,100,0.00,,,0.00,0.000000,,2013-10-21 11:12:00,
2013-10-21 07:42:00,33.0,33.0,-100.00,ENE,68,0.0,2.0,100,0.00,,,0.00,0.000000,,2013-10-21 11:42:00,
2013-10-21 07:52:00,33.0,33.0,-100.00,ENE,68,0.0,2.0,100,0.00,,,0.00,0.000000,,2013-10-21 11:52:00,
2013-10-21 08:01:00,33.0,33.0,-100.00,ENE,68,0.0,2.0,100,0.00,,,0.00,0.000000,,2013-10-21 12:01:00,
2013-10-21 08:12:00,33.0,33.0,-100.00,ENE,68,0.0,2.0,100,0.00,,,0.00,0.000000,,2013-10-21 12:12:00,
2013-10-21 08:42:00,32.0,32.0,-100.00,NNW,341,0.0,0.0,100,0.00,,,0.00,9.000000,,2013-10-21 12:42:00,
2013-10-21 08:52:00,32.0,32.0,-100.00,NNW,341,0.0,0.0,100,0.00,,,0.00,9.000000,,2013-10-21 12:52:00,
2013-10-21 09:02:00,32.0,32.0,-100.00,NNW,341,0.0,0.0,100,0.00,,,0.00,9.000000,,2013-10-21 13:02:00,
2013-10-21 09:11:00,32.0,32.0,-100.00,NNW,341,0.0,0.0,100,0.00,,,0.00,9.000000,,2013-10-21 13:11:00,
2013-10-21 10:12:00,41.0,41.0,-100.00,WSW,257,0.0,1.0,100,0.00,,,0.00,108.000000,,2013-10-21 14:12:00,
2013-10-21 11:54:00,55.0,39.0,-100.00,WNW,292,3.0,6.0,54,-99.99,,,0.00,450.000000,,2013-10-21 15:54:00,
2013-10-21 12:04:00,55.0,39.0,-100.00,WNW,292,3.0,6.0,54,-99.99,,,0.00,450.000000,,2013-10-21 16:04:00,
2013-10-21 12:13:00,55.0,39.0,-100.00,WNW,292,3.0,6.0,54,-99.99,,,0.00,450.000000,,2013-10-21 16:13:00,
2013-10-21 12:54:00,61.0,38.0,-100.00,SSW,194,5.0,7.0,43,0.00,,,0.00,543.000000,,2013-10-21 16:54:00,
2013-10-21 13:02:00,61.0,38.0,-100.00,SSW,194,5.0,7.0,43,0.00,,,0.00,543.000000,,2013-10-21 17:02:00,
2013-10-21 13:12:00,61.0,38.0,-100.00,SSW,194,5.0,7.0,43,0.00,,,0.00,543.000000,,2013-10-21 17:12:00,
2013-10-21 13:43:00,64.0,39.0,-100.00,SW,215,4.0,9.0,40,0.00,,,0.00,586.000000,,2013-10-21 17:43:00,
2013-10-21 13:53:00,64.0,39.0,-100.00,SW,215,4.0,9.0,40,0.00,,,0.00,586.000000,,2013-10-21 17:53:00,
2013-10-21 14:02:00,64.0,39.0,-100.00,SW,215,4.0,9.0,40,0.00,,,0.00,586.000000,,2013-10-21 18:02:00,
2013-10-21 14:12:00,64.0,39.0,-100.00,SW,215,4.0,9.0,40,0.00,,,0.00,586.000000,,2013-10-21 18:12:00,
2013-10-21 14:42:00,67.0,38.0,-100.00,South,171,4.0,10.0,35,0.00,,,0.00,572.000000,,2013-10-21 18:42:00,
2013-10-21 14:52:00,67.0,38.0,-100.00,South,171,4.0,10.0,35,0.00,,,0.00,572.000000,,2013-10-21 18:52:00,
2013-10-21 15:02:00,67.0,38.0,-100.00,South,171,4.0,10.0,35,0.00,,,0.00,572.000000,,2013-10-21 19:02:00,
2013-10-21 15:11:00,67.0,38.0,-100.00,South,171,4.0,10.0,35,0.00,,,0.00,572.000000,,2013-10-21 19:11:00,
2013-10-21 15:42:00,70.0,43.0,-100.00,SW,215,4.0,10.0,37,0.00,,,0.00,502.000000,,2013-10-21 19:42:00,
2013-10-21 15:52:00,70.0,43.0,-100.00,SW,215,4.0,10.0,37,0.00,,,0.00,502.000000,,2013-10-21 19:52:00,
2013-10-21 16:02:00,70.0,43.0,-100.00,SW,215,4.0,10.0,37,0.00,,,0.00,502.000000,,2013-10-21 20:02:00,
2013-10-21 16:12:00,70.0,43.0,-100.00,SW,215,4.0,10.0,37,0.00,,,0.00,502.000000,,2013-10-21 20:12:00,
2013-10-21 16:43:00,70.0,40.0,-100.00,WSW,243,4.0,7.0,33,0.00,,,0.00,387.000000,,2013-10-21 20:43:00,
2013-10-21 16:53:00,70.0,40.0,-100.00,WSW,243,4.0,7.0,33,0.00,,,0.00,387.000000,,2013-10-21 20:53:00,
2013-10-21 17:03:00,70.0,40.0,-100.00,WSW,243,4.0,7.0,33,0.00,,,0.00,387.000000,,2013-10-21 21:03:00,
2013-10-21 17:12:00,70.0,40.0,-100.00,WSW,243,4.0,7.0,33,0.00,,,0.00,387.000000,,2013-10-21 21:12:00,
2013-10-21 17:44:00,69.0,39.0,-100.00,SSW,192,3.0,7.0,34,0.00,,,0.00,215.000000,,2013-10-21 21:44:00,
2013-10-21 17:54:00,69.0,39.0,-100.00,SSW,192,3.0,7.0,34,0.00,,,0.00,215.000000,,2013-10-21 21:54:00,
2013-10-21 18:04:00,69.0,39.0,-100.00,SSW,192,3.0,7.0,34,0.00,,,0.00,215.000000,,2013-10-21 22:04:00,
2013-10-21 18:13:00,69.0,39.0,-100.00,SSW,192,3.0,7.0,34,0.00,,,0.00,215.000000,,2013-10-21 22:13:00,
2013-10-21 18:44:00,62.0,39.0,-100.00,South,187,4.0,9.0,42,0.00,,,0.00,64.000000,,2013-10-21 22:44:00,
2013-10-21 18:54:00,62.0,39.0,-100.00,South,187,4.0,9.0,42,0.00,,,0.00,64.000000,,2013-10-21 22:54:00,
2013-10-21 19:03:00,62.0,39.0,-100.00,South,187,4.0,9.0,42,0.00,,,0.00,64.000000,,2013-10-21 23:03:00,
2013-10-21 19:13:00,62.0,39.0,-100.00,South,187,4.0,9.0,42,0.00,,,0.00,64.000000,,2013-10-21 23:13:00,
2013-10-21 19:42:00,60.0,40.0,-100.00,SE,131,4.0,10.0,47,0.00,,,0.00,1.000000,,2013-10-21 23:42:00,
2013-10-21 19:53:00,60.0,40.0,-100.00,SE,131,4.0,10.0,47,0.00,,,0.00,1.000000,,2013-10-21 23:53:00,
2013-10-21 20:02:00,60.0,40.0,-100.00,SE,131,4.0,10.0,47,0.00,,,0.00,1.000000,,2013-10-22 00:02:00,
2013-10-21 20:12:00,60.0,40.0,-100.00,SE,131,4.0,10.0,47,0.00,,,0.00,1.000000,,2013-10-22 00:12:00,
2013-10-21 20:42:00,56.0,41.0,-100.00,SE,130,3.0,9.0,57,0.00,,,0.00,0.000000,,2013-10-22 00:42:00,
2013-10-21 20:53:00,56.0,41.0,-100.00,SE,130,3.0,9.0,57,0.00,,,0.00,0.000000,,2013-10-22 00:53:00,
2013-10-21 21:03:00,56.0,41.0,-100.00,SE,130,3.0,9.0,57,0.00,,,0.00,0.000000,,2013-10-22 01:03:00,
2013-10-21 21:12:00,56.0,41.0,-100.00,SE,130,3.0,9.0,57,0.00,,,0.00,0.000000,,2013-10-22 01:12:00,
2013-10-21 21:42:00,52.0,43.0,-100.00,North,2,1.0,6.0,72,0.00,,,0.00,0.000000,,2013-10-22 01:42:00,
2013-10-21 21:53:00,52.0,43.0,-100.00,North,2,1.0,6.0,72,0.00,,,0.00,0.000000,,2013-10-22 01:53:00,
2013-10-21 22:02:00,52.0,43.0,-100.00,North,2,1.0,6.0,72,0.00,,,0.00,0.000000,,2013-10-22 02:02:00,
2013-10-21 22:12:00,52.0,43.0,-100.00,North,2,1.0,6.0,72,0.00,,,0.00,0.000000,,2013-10-22 02:12:00,
2013-10-21 22:43:00,52.0,41.0,-100.00,ESE,106,1.0,3.0,66,0.00,,,0.00,0.000000,,2013-10-22 02:43:00,
2013-10-21 22:52:00,52.0,41.0,-100.00,ESE,106,1.0,3.0,66,0.00,,,0.00,0.000000,,2013-10-22 02:52:00,
2013-10-21 23:03:00,52.0,41.0,-100.00,ESE,106,1.0,3.0,66,0.00,,,0.00,0.000000,,2013-10-22 03:03:00,
2013-10-21 23:12:00,52.0,41.0,-100.00,ESE,106,1.0,3.0,66,0.00,,,0.00,0.000000,,2013-10-22 03:12:00,
2013-10-21 23:45:00,47.0,44.0,-100.00,ENE,62,0.0,4.0,88,0.00,,,0.00,0.000000,,2013-10-22 03:45:00,
2013-10-21 23:55:00,47.0,44.0,-100.00,ENE,62,0.0,4.0,88,0.00,,,0.00,0.000000,,2013-10-22 03:55:00,